sensor_id;sensor_type;location;lat;lon;timestamp;pressure;altitude;pressure_sealevel;temperature;humidity
42691;BME280;28306;55.744;37.578;2023-01-08T00:01:56;101235.00;;;21.90;19.83
42691;BME280;28306;55.744;37.578;2023-01-08T00:04:22;101227.91;;;21.89;19.75
42691;BME280;28306;55.744;37.578;2023-01-08T00:06:48;101233.72;;;21.86;19.57
42691;BME280;28306;55.744;37.578;2023-01-08T00:09:13;101229.34;;;21.85;19.66
42691;BME280;28306;55.744;37.578;2023-01-08T00:11:39;101214.13;;;21.77;19.50
42691;BME280;28306;55.744;37.578;2023-01-08T00:14:05;101221.41;;;21.83;19.85
42691;BME280;28306;55.744;37.578;2023-01-08T00:16:31;101217.69;;;21.77;19.75
42691;BME280;28306;55.744;37.578;2023-01-08T00:18:56;101221.88;;;21.87;19.76
42691;BME280;28306;55.744;37.578;2023-01-08T00:21:22;101220.41;;;21.84;19.67
42691;BME280;28306;55.744;37.578;2023-01-08T00:26:13;101233.31;;;21.89;19.74
42691;BME280;28306;55.744;37.578;2023-01-08T00:28:40;101247.06;;;21.94;19.60
42691;BME280;28306;55.744;37.578;2023-01-08T00:31:07;101250.00;;;21.92;19.60
42691;BME280;28306;55.744;37.578;2023-01-08T00:33:34;101230.41;;;21.84;19.57
42691;BME280;28306;55.744;37.578;2023-01-08T00:36:12;101251.47;;;21.95;19.60
42691;BME280;28306;55.744;37.578;2023-01-08T00:38:38;101245.84;;;21.90;19.59
42691;BME280;28306;55.744;37.578;2023-01-08T00:41:04;101241.03;;;21.92;19.62
42691;BME280;28306;55.744;37.578;2023-01-08T00:45:55;101239.16;;;21.92;19.54
42691;BME280;28306;55.744;37.578;2023-01-08T00:48:21;101232.91;;;21.85;19.66
42691;BME280;28306;55.744;37.578;2023-01-08T00:50:48;101246.25;;;21.93;19.65
42691;BME280;28306;55.744;37.578;2023-01-08T00:53:14;101245.84;;;21.90;19.76
42691;BME280;28306;55.744;37.578;2023-01-08T00:55:39;101238.53;;;21.90;19.75
42691;BME280;28306;55.744;37.578;2023-01-08T00:58:05;101234.56;;;21.86;19.47
42691;BME280;28306;55.744;37.578;2023-01-08T01:00:30;101244.59;;;21.99;19.49
42691;BME280;28306;55.744;37.578;2023-01-08T01:02:56;101242.31;;;22.03;19.67
42691;BME280;28306;55.744;37.578;2023-01-08T01:05:22;101237.91;;;21.95;19.31
42691;BME280;28306;55.744;37.578;2023-01-08T01:10:14;101251.47;;;22.02;19.65
42691;BME280;28306;55.744;37.578;2023-01-08T01:12:41;101254.19;;;21.95;19.72
42691;BME280;28306;55.744;37.578;2023-01-08T01:15:12;101253.34;;;21.94;19.54
42691;BME280;28306;55.744;37.578;2023-01-08T01:17:40;101246.66;;;21.84;19.84
42691;BME280;28306;55.744;37.578;2023-01-08T01:20:07;101242.47;;;21.88;19.53
42691;BME280;28306;55.744;37.578;2023-01-08T01:22:34;101250.41;;;21.89;19.65
42691;BME280;28306;55.744;37.578;2023-01-08T01:25:00;101254.59;;;21.92;19.57
42691;BME280;28306;55.744;37.578;2023-01-08T01:27:25;101241.84;;;21.86;19.73
42691;BME280;28306;55.744;37.578;2023-01-08T01:29:52;101253.56;;;21.93;19.55
42691;BME280;28306;55.744;37.578;2023-01-08T01:32:18;101247.06;;;21.94;19.60
42691;BME280;28306;55.744;37.578;2023-01-08T01:34:43;101241.88;;;21.92;19.61
42691;BME280;28306;55.744;37.578;2023-01-08T01:37:13;101217.69;;;21.77;19.68
42691;BME280;28306;55.744;37.578;2023-01-08T01:39:40;101227.03;;;21.82;19.48
42691;BME280;28306;55.744;37.578;2023-01-08T01:42:15;101240.00;;;21.93;19.59
42691;BME280;28306;55.744;37.578;2023-01-08T01:45:00;101242.50;;;21.94;19.65
42691;BME280;28306;55.744;37.578;2023-01-08T01:47:32;101242.31;;;21.96;19.49
42691;BME280;28306;55.744;37.578;2023-01-08T01:52:25;101240.00;;;22.00;19.58
42691;BME280;28306;55.744;37.578;2023-01-08T01:54:52;101256.88;;;22.02;19.66
42691;BME280;28306;55.744;37.578;2023-01-08T01:57:18;101254.38;;;22.00;19.51
42691;BME280;28306;55.744;37.578;2023-01-08T01:59:44;101243.13;;;21.96;19.60
42691;BME280;28306;55.744;37.578;2023-01-08T02:02:11;101248.56;;;21.96;19.52
42691;BME280;28306;55.744;37.578;2023-01-08T02:04:37;101250.22;;;21.98;19.56
42691;BME280;28306;55.744;37.578;2023-01-08T02:07:13;101243.94;;;21.97;19.66
42691;BME280;28306;55.744;37.578;2023-01-08T02:09:47;101238.13;;;21.93;19.44
42691;BME280;28306;55.744;37.578;2023-01-08T02:17:54;101256.06;;;21.94;19.73
42691;BME280;28306;55.744;37.578;2023-01-08T02:28:25;101249.38;;;21.90;19.54
42691;BME280;28306;55.744;37.578;2023-01-08T02:30:51;101253.34;;;21.94;19.51
42691;BME280;28306;55.744;37.578;2023-01-08T02:33:17;101252.28;;;21.95;19.74
42691;BME280;28306;55.744;37.578;2023-01-08T02:36:22;101219.13;;;21.80;19.54
42691;BME280;28306;55.744;37.578;2023-01-08T02:38:47;101243.53;;;21.93;19.47
42691;BME280;28306;55.744;37.578;2023-01-08T02:41:18;101243.34;;;21.95;19.57
42691;BME280;28306;55.744;37.578;2023-01-08T02:43:50;101244.97;;;21.89;19.66
42691;BME280;28306;55.744;37.578;2023-01-08T02:46:22;101235.38;;;21.80;19.46
42691;BME280;28306;55.744;37.578;2023-01-08T02:48:54;101251.66;;;21.93;19.54
42691;BME280;28306;55.744;37.578;2023-01-08T02:51:47;101245.44;;;21.93;19.64
42691;BME280;28306;55.744;37.578;2023-01-08T02:54:19;101245.84;;;21.90;19.41
42691;BME280;28306;55.744;37.578;2023-01-08T02:56:50;101252.09;;;21.97;19.54
42691;BME280;28306;55.744;37.578;2023-01-08T02:59:18;101251.66;;;21.93;19.54
42691;BME280;28306;55.744;37.578;2023-01-08T03:01:45;101235.22;;;21.95;19.67
42691;BME280;28306;55.744;37.578;2023-01-08T03:04:19;101245.84;;;21.96;19.67
42691;BME280;28306;55.744;37.578;2023-01-08T03:06:46;101239.59;;;21.96;19.64
42691;BME280;28306;55.744;37.578;2023-01-08T03:09:14;101226.44;;;21.86;19.48
42691;BME280;28306;55.744;37.578;2023-01-08T03:14:35;101229.34;;;21.85;19.57
42691;BME280;28306;55.744;37.578;2023-01-08T03:17:13;101244.38;;;21.94;19.59
42691;BME280;28306;55.744;37.578;2023-01-08T03:19:48;101246.66;;;21.97;19.54
42691;BME280;28306;55.744;37.578;2023-01-08T03:22:16;101223.50;;;21.88;19.66
42691;BME280;28306;55.744;37.578;2023-01-08T03:24:45;101229.75;;;21.82;19.30
42691;BME280;28306;55.744;37.578;2023-01-08T03:27:18;101255.84;;;21.96;19.57
42691;BME280;28306;55.744;37.578;2023-01-08T03:29:48;101260.22;;;21.97;19.39
42691;BME280;28306;55.744;37.578;2023-01-08T03:32:15;101263.16;;;22.02;19.56
42691;BME280;28306;55.744;37.578;2023-01-08T03:34:43;101235.81;;;21.90;19.50
42691;BME280;28306;55.744;37.578;2023-01-08T03:37:11;101259.81;;;22.00;19.53
42691;BME280;28306;55.744;37.578;2023-01-08T03:42:33;101251.66;;;22.00;19.36
42691;BME280;28306;55.744;37.578;2023-01-08T03:44:59;101238.75;;;21.89;19.47
42691;BME280;28306;55.744;37.578;2023-01-08T03:47:27;101258.97;;;21.93;19.52
42691;BME280;28306;55.744;37.578;2023-01-08T03:49:56;101262.09;;;21.90;19.55
42691;BME280;28306;55.744;37.578;2023-01-08T03:52:26;101262.09;;;21.96;19.60
42691;BME280;28306;55.744;37.578;2023-01-08T03:54:52;101245.22;;;21.94;19.37
42691;BME280;28306;55.744;37.578;2023-01-08T03:57:19;101218.91;;;21.82;19.42
42691;BME280;28306;55.744;37.578;2023-01-08T03:59:45;101260.66;;;22.01;19.55
42691;BME280;28306;55.744;37.578;2023-01-08T04:02:11;101226.44;;;21.73;19.52
42691;BME280;28306;55.744;37.578;2023-01-08T04:04:36;101259.59;;;21.88;19.53
42691;BME280;28306;55.744;37.578;2023-01-08T04:09:27;101262.09;;;21.90;19.42
42691;BME280;28306;55.744;37.578;2023-01-08T04:11:53;101263.13;;;21.89;19.51
42691;BME280;28306;55.744;37.578;2023-01-08T04:14:19;101237.47;;;21.78;19.23
42691;BME280;28306;55.744;37.578;2023-01-08T04:16:44;101259.81;;;21.93;19.39
42691;BME280;28306;55.744;37.578;2023-01-08T04:19:11;101257.50;;;21.90;19.42
42691;BME280;28306;55.744;37.578;2023-01-08T04:21:37;101237.88;;;21.82;19.51
42691;BME280;28306;55.744;37.578;2023-01-08T04:24:03;101252.94;;;21.98;19.56
42691;BME280;28306;55.744;37.578;2023-01-08T04:26:29;101233.94;;;21.84;19.52
42691;BME280;28306;55.744;37.578;2023-01-08T04:28:55;101250.03;;;21.99;19.49
42691;BME280;28306;55.744;37.578;2023-01-08T04:31:20;101243.75;;;21.92;19.69
42691;BME280;28306;55.744;37.578;2023-01-08T04:33:46;101233.13;;;21.90;19.63
42691;BME280;28306;55.744;37.578;2023-01-08T04:36:12;101222.69;;;21.81;19.37
42691;BME280;28306;55.744;37.578;2023-01-08T04:38:38;101245.63;;;21.98;19.29
42691;BME280;28306;55.744;37.578;2023-01-08T04:41:03;101251.47;;;22.02;19.31
42691;BME280;28306;55.744;37.578;2023-01-08T04:43:29;101247.72;;;22.03;19.32
42691;BME280;28306;55.744;37.578;2023-01-08T04:45:59;101251.25;;;22.03;19.50
42691;BME280;28306;55.744;37.578;2023-01-08T04:48:26;101237.91;;;21.95;19.46
42691;BME280;28306;55.744;37.578;2023-01-08T04:50:52;101237.72;;;21.96;19.33
42691;BME280;28306;55.744;37.578;2023-01-08T04:55:43;101238.13;;;21.93;19.02
42691;BME280;28306;55.744;37.578;2023-01-08T04:58:09;101232.28;;;21.90;19.40
42691;BME280;28306;55.744;37.578;2023-01-08T05:00:35;101237.91;;;21.95;19.29
42691;BME280;28306;55.744;37.578;2023-01-08T05:03:00;101229.78;;;21.95;19.54
42691;BME280;28306;55.744;37.578;2023-01-08T05:05:26;101242.50;;;21.94;19.53
42691;BME280;28306;55.744;37.578;2023-01-08T05:07:52;101240.22;;;21.98;19.51
42691;BME280;28306;55.744;37.578;2023-01-08T05:10:17;101245.63;;;21.98;19.36
42691;BME280;28306;55.744;37.578;2023-01-08T05:12:43;101247.72;;;21.96;19.42
42691;BME280;28306;55.744;37.578;2023-01-08T05:15:09;101241.03;;;21.99;19.52
42691;BME280;28306;55.744;37.578;2023-01-08T05:17:35;101238.97;;;22.01;19.45
42691;BME280;28306;55.744;37.578;2023-01-08T05:20:00;101245.84;;;22.03;19.25
42691;BME280;28306;55.744;37.578;2023-01-08T05:22:26;101236.06;;;22.02;19.29
42691;BME280;28306;55.744;37.578;2023-01-08T05:24:51;101231.88;;;22.00;19.28
42691;BME280;28306;55.744;37.578;2023-01-08T05:27:17;101242.50;;;22.01;19.44
42691;BME280;28306;55.744;37.578;2023-01-08T05:29:43;101253.97;;;22.03;19.34
42691;BME280;28306;55.744;37.578;2023-01-08T05:32:14;101249.16;;;21.99;19.09
42691;BME280;28306;55.744;37.578;2023-01-08T05:34:40;101247.06;;;21.94;19.18
42691;BME280;28306;55.744;37.578;2023-01-08T05:37:05;101262.31;;;22.02;19.27
42691;BME280;28306;55.744;37.578;2023-01-08T05:39:31;101241.25;;;21.90;19.37
42691;BME280;28306;55.744;37.578;2023-01-08T05:41:57;101260.22;;;21.97;19.39
42691;BME280;28306;55.744;37.578;2023-01-08T05:44:22;101230.63;;;21.89;19.34
42691;BME280;28306;55.744;37.578;2023-01-08T05:46:48;101219.31;;;21.78;19.34
42691;BME280;28306;55.744;37.578;2023-01-08T05:49:14;101254.19;;;22.02;19.25
42691;BME280;28306;55.744;37.578;2023-01-08T05:51:39;101233.31;;;21.95;19.39
42691;BME280;28306;55.744;37.578;2023-01-08T05:54:05;101243.78;;;22.05;19.33
42691;BME280;28306;55.744;37.578;2023-01-08T05:56:30;101233.13;;;21.97;19.23
42691;BME280;28306;55.744;37.578;2023-01-08T05:58:56;101238.97;;;22.07;19.32
42691;BME280;28306;55.744;37.578;2023-01-08T06:01:22;101240.63;;;22.08;19.18
42691;BME280;28306;55.744;37.578;2023-01-08T06:03:48;101247.72;;;22.09;19.23
42691;BME280;28306;55.744;37.578;2023-01-08T06:06:13;101245.41;;;22.13;19.19
42691;BME280;28306;55.744;37.578;2023-01-08T06:08:41;101239.78;;;22.14;19.14
42691;BME280;28306;55.744;37.578;2023-01-08T06:11:07;101225.00;;;22.04;19.21
42691;BME280;28306;55.744;37.578;2023-01-08T06:13:35;101229.78;;;22.08;19.32
42691;BME280;28306;55.744;37.578;2023-01-08T06:16:02;101238.34;;;22.05;19.04
42691;BME280;28306;55.744;37.578;2023-01-08T06:18:29;101236.47;;;22.12;19.17
42691;BME280;28306;55.744;37.578;2023-01-08T06:20:55;101248.38;;;22.18;19.14
42691;BME280;28306;55.744;37.578;2023-01-08T06:23:20;101245.44;;;22.20;19.00
42691;BME280;28306;55.744;37.578;2023-01-08T06:25:53;101239.59;;;22.16;19.07
42691;BME280;28306;55.744;37.578;2023-01-08T06:28:19;101235.84;;;22.17;19.10
42691;BME280;28306;55.744;37.578;2023-01-08T06:30:45;101245.84;;;22.17;19.17
42691;BME280;28306;55.744;37.578;2023-01-08T06:33:11;101248.56;;;22.17;19.14
42691;BME280;28306;55.744;37.578;2023-01-08T06:35:36;101241.69;;;22.14;19.18
42691;BME280;28306;55.744;37.578;2023-01-08T06:38:02;101245.84;;;22.17;18.93
42691;BME280;28306;55.744;37.578;2023-01-08T06:40:28;101246.69;;;22.10;18.98
42691;BME280;28306;55.744;37.578;2023-01-08T06:42:53;101259.41;;;22.17;18.85
42691;BME280;28306;55.744;37.578;2023-01-08T06:45:19;101252.72;;;22.19;18.89
42691;BME280;28306;55.744;37.578;2023-01-08T06:47:45;101227.94;;;22.09;19.00
42691;BME280;28306;55.744;37.578;2023-01-08T06:50:11;101236.88;;;22.09;19.14
42691;BME280;28306;55.744;37.578;2023-01-08T06:52:37;101233.56;;;22.07;19.06
42691;BME280;28306;55.744;37.578;2023-01-08T06:55:04;101253.16;;;22.23;19.05
42691;BME280;28306;55.744;37.578;2023-01-08T06:57:30;101247.09;;;22.21;18.88
42691;BME280;28306;55.744;37.578;2023-01-08T06:59:56;101260.03;;;22.25;19.14
42691;BME280;28306;55.744;37.578;2023-01-08T07:02:22;101249.19;;;22.19;19.04
42691;BME280;28306;55.744;37.578;2023-01-08T07:04:48;101233.34;;;22.02;18.89
42691;BME280;28306;55.744;37.578;2023-01-08T07:07:14;101266.47;;;22.18;18.92
42691;BME280;28306;55.744;37.578;2023-01-08T07:09:40;101273.59;;;22.19;19.19
42691;BME280;28306;55.744;37.578;2023-01-08T07:12:11;101284.22;;;22.20;18.95
42691;BME280;28306;55.744;37.578;2023-01-08T07:14:36;101279.00;;;22.19;19.21
42691;BME280;28306;55.744;37.578;2023-01-08T07:17:02;101279.63;;;22.21;18.82
42691;BME280;28306;55.744;37.578;2023-01-08T07:19:28;101279.63;;;22.21;18.98
42691;BME280;28306;55.744;37.578;2023-01-08T07:21:53;101268.16;;;22.12;18.91
42691;BME280;28306;55.744;37.578;2023-01-08T07:24:19;101276.50;;;22.17;18.98
42691;BME280;28306;55.744;37.578;2023-01-08T07:26:44;101280.69;;;22.20;19.12
42691;BME280;28306;55.744;37.578;2023-01-08T07:29:10;101293.38;;;22.19;18.89
42691;BME280;28306;55.744;37.578;2023-01-08T07:31:36;101288.19;;;22.24;19.01
42691;BME280;28306;55.744;37.578;2023-01-08T07:34:02;101284.44;;;22.25;18.86
42691;BME280;28306;55.744;37.578;2023-01-08T07:36:27;101291.75;;;22.25;18.88
42691;BME280;28306;55.744;37.578;2023-01-08T07:38:53;101299.47;;;22.28;18.87
42691;BME280;28306;55.744;37.578;2023-01-08T07:41:18;101294.03;;;22.21;18.92
42691;BME280;28306;55.744;37.578;2023-01-08T07:43:46;101308.63;;;22.20;18.93
42691;BME280;28306;55.744;37.578;2023-01-08T07:46:13;101309.47;;;22.27;18.95
42691;BME280;28306;55.744;37.578;2023-01-08T07:48:38;101304.88;;;22.21;18.82
42691;BME280;28306;55.744;37.578;2023-01-08T07:51:05;101303.00;;;22.15;18.98
42691;BME280;28306;55.744;37.578;2023-01-08T07:53:32;101319.66;;;22.25;19.15
42691;BME280;28306;55.744;37.578;2023-01-08T07:55:59;101310.09;;;22.23;18.66
42691;BME280;28306;55.744;37.578;2023-01-08T07:58:25;101303.00;;;22.22;18.90
42691;BME280;28306;55.744;37.578;2023-01-08T08:00:51;101290.47;;;22.21;19.05
42691;BME280;28306;55.744;37.578;2023-01-08T08:03:16;101304.09;;;22.34;18.74
42691;BME280;28306;55.744;37.578;2023-01-08T08:05:42;101306.59;;;22.36;18.84
42691;BME280;28306;55.744;37.578;2023-01-08T08:08:09;101300.09;;;22.30;18.75
42691;BME280;28306;55.744;37.578;2023-01-08T08:10:36;101301.34;;;22.27;18.81
42691;BME280;28306;55.744;37.578;2023-01-08T08:13:01;101308.88;;;22.32;18.85
42691;BME280;28306;55.744;37.578;2023-01-08T08:15:27;101302.41;;;22.33;18.82
42691;BME280;28306;55.744;37.578;2023-01-08T08:17:52;101300.34;;;22.35;18.91
42691;BME280;28306;55.744;37.578;2023-01-08T08:20:18;101304.28;;;22.33;18.71
42691;BME280;28306;55.744;37.578;2023-01-08T08:22:44;101299.25;;;22.29;18.97
42691;BME280;28306;55.744;37.578;2023-01-08T08:25:10;101298.66;;;22.34;19.05
42691;BME280;28306;55.744;37.578;2023-01-08T08:27:35;101302.84;;;22.43;18.80
42691;BME280;28306;55.744;37.578;2023-01-08T08:30:01;101296.56;;;22.43;18.95
42691;BME280;28306;55.744;37.578;2023-01-08T08:32:27;101299.06;;;22.44;18.76
42691;BME280;28306;55.744;37.578;2023-01-08T08:34:52;101302.84;;;22.43;18.77
42691;BME280;28306;55.744;37.578;2023-01-08T08:37:18;101313.06;;;22.48;18.75
42691;BME280;28306;55.744;37.578;2023-01-08T08:39:44;101312.00;;;22.42;18.86
42691;BME280;28306;55.744;37.578;2023-01-08T08:42:09;101287.59;;;22.36;18.81
42691;BME280;28306;55.744;37.578;2023-01-08T08:44:35;101296.75;;;22.41;18.90
42691;BME280;28306;55.744;37.578;2023-01-08T08:47:00;101264.00;;;22.23;18.77
42691;BME280;28306;55.744;37.578;2023-01-08T08:49:26;101275.94;;;22.35;18.86
42691;BME280;28306;55.744;37.578;2023-01-08T08:51:51;101288.41;;;22.43;18.72
42691;BME280;28306;55.744;37.578;2023-01-08T08:54:17;101297.22;;;22.45;18.62
42691;BME280;28306;55.744;37.578;2023-01-08T08:56:43;101292.59;;;22.45;18.76
42691;BME280;28306;55.744;37.578;2023-01-08T08:59:09;101293.44;;;22.46;18.78
42691;BME280;28306;55.744;37.578;2023-01-08T09:01:37;101261.31;;;22.36;18.78
42691;BME280;28306;55.744;37.578;2023-01-08T09:04:03;101278.84;;;22.47;18.68
42691;BME280;28306;55.744;37.578;2023-01-08T09:06:28;101270.09;;;22.45;18.89
42691;BME280;28306;55.744;37.578;2023-01-08T09:08:54;101267.34;;;22.52;18.90
42691;BME280;28306;55.744;37.578;2023-01-08T09:11:20;101288.22;;;22.58;18.75
42691;BME280;28306;55.744;37.578;2023-01-08T09:13:46;101260.47;;;22.49;18.79
42691;BME280;28306;55.744;37.578;2023-01-08T09:16:11;101289.28;;;22.63;18.65
42691;BME280;28306;55.744;37.578;2023-01-08T09:18:37;101284.66;;;22.64;18.67
42691;BME280;28306;55.744;37.578;2023-01-08T09:21:04;101288.00;;;22.59;18.68
42691;BME280;28306;55.744;37.578;2023-01-08T09:23:30;101295.31;;;22.59;18.75
42691;BME280;28306;55.744;37.578;2023-01-08T09:26:00;101282.19;;;22.56;18.72
42691;BME280;28306;55.744;37.578;2023-01-08T09:28:26;101294.25;;;22.60;18.54
42691;BME280;28306;55.744;37.578;2023-01-08T09:30:52;101289.47;;;22.68;18.10
42691;BME280;28306;55.744;37.578;2023-01-08T09:33:17;101287.78;;;22.67;18.14
42691;BME280;28306;55.744;37.578;2023-01-08T09:35:43;101277.59;;;22.56;17.85
42691;BME280;28306;55.744;37.578;2023-01-08T09:38:09;101288.84;;;22.60;18.48
42691;BME280;28306;55.744;37.578;2023-01-08T09:40:40;101267.97;;;22.54;18.52
42691;BME280;28306;55.744;37.578;2023-01-08T09:43:08;101283.63;;;22.65;18.60
42691;BME280;28306;55.744;37.578;2023-01-08T09:45:39;101277.16;;;22.59;18.55
42691;BME280;28306;55.744;37.578;2023-01-08T09:48:09;101283.19;;;22.61;18.58
42691;BME280;28306;55.744;37.578;2023-01-08T09:50:37;101275.91;;;22.62;18.61
42691;BME280;28306;55.744;37.578;2023-01-08T09:53:03;101271.31;;;22.62;18.65
42691;BME280;28306;55.744;37.578;2023-01-08T09:55:32;101285.28;;;22.66;18.70
42691;BME280;28306;55.744;37.578;2023-01-08T09:57:59;101254.41;;;22.54;18.86
42691;BME280;28306;55.744;37.578;2023-01-08T10:00:28;101277.59;;;22.70;18.93
42691;BME280;28306;55.744;37.578;2023-01-08T10:02:55;101272.38;;;22.68;18.94
42691;BME280;28306;55.744;37.578;2023-01-08T10:05:22;101256.94;;;22.62;18.91
42691;BME280;28306;55.744;37.578;2023-01-08T10:07:48;101270.06;;;22.72;19.00
42691;BME280;28306;55.744;37.578;2023-01-08T10:12:46;101263.38;;;22.61;18.86
42691;BME280;28306;55.744;37.578;2023-01-08T10:15:17;101272.13;;;22.63;19.02
42691;BME280;28306;55.744;37.578;2023-01-08T10:17:47;101282.16;;;22.69;18.84
42691;BME280;28306;55.744;37.578;2023-01-08T10:20:18;101279.84;;;22.73;18.68
42691;BME280;28306;55.744;37.578;2023-01-08T10:22:45;101278.59;;;22.75;19.05
42691;BME280;28306;55.744;37.578;2023-01-08T10:25:21;101266.53;;;22.71;19.04
42691;BME280;28306;55.744;37.578;2023-01-08T10:27:49;101274.22;;;22.74;19.04
42691;BME280;28306;55.744;37.578;2023-01-08T10:30:33;101262.75;;;22.72;18.89
42691;BME280;28306;55.744;37.578;2023-01-08T10:33:10;101266.06;;;22.74;18.98
42691;BME280;28306;55.744;37.578;2023-01-08T10:35:40;101271.72;;;22.79;19.03
42691;BME280;28306;55.744;37.578;2023-01-08T10:38:27;101259.19;;;22.72;19.37
42691;BME280;28306;55.744;37.578;2023-01-08T10:40:55;101262.75;;;22.72;19.14
42691;BME280;28306;55.744;37.578;2023-01-08T10:43:30;101273.34;;;22.80;19.33
42691;BME280;28306;55.744;37.578;2023-01-08T10:46:00;101278.56;;;22.82;19.30
42691;BME280;28306;55.744;37.578;2023-01-08T10:48:36;101265.66;;;22.77;19.56
42691;BME280;28306;55.744;37.578;2023-01-08T10:51:11;101272.88;;;20.58;15.22
42691;BME280;28306;55.744;37.578;2023-01-08T10:53:38;101284.00;;;17.96;17.23
42691;BME280;28306;55.744;37.578;2023-01-08T10:56:05;101283.31;;;16.10;17.63
42691;BME280;28306;55.744;37.578;2023-01-08T10:58:41;101277.94;;;14.19;19.41
42691;BME280;28306;55.744;37.578;2023-01-08T11:01:22;101297.91;;;12.96;19.80
42691;BME280;28306;55.744;37.578;2023-01-08T11:04:02;101292.25;;;12.13;20.59
42691;BME280;28306;55.744;37.578;2023-01-08T11:06:31;101294.94;;;11.43;21.54
42691;BME280;28306;55.744;37.578;2023-01-08T11:09:00;101293.69;;;10.85;20.89
42691;BME280;28306;55.744;37.578;2023-01-08T11:11:34;101293.09;;;10.28;21.61
42691;BME280;28306;55.744;37.578;2023-01-08T11:14:03;101291.88;;;9.56;22.01
42691;BME280;28306;55.744;37.578;2023-01-08T11:16:34;101285.03;;;8.97;21.91
42691;BME280;28306;55.744;37.578;2023-01-08T11:19:01;101275.31;;;8.62;22.63
42691;BME280;28306;55.744;37.578;2023-01-08T11:21:29;101288.59;;;8.62;23.69
42691;BME280;28306;55.744;37.578;2023-01-08T11:24:14;101293.94;;;8.73;22.29
42691;BME280;28306;55.744;37.578;2023-01-08T11:27:15;101287.94;;;9.05;22.84
42691;BME280;28306;55.744;37.578;2023-01-08T11:29:56;101276.31;;;9.40;27.68
42691;BME280;28306;55.744;37.578;2023-01-08T11:35:19;101272.78;;;12.89;26.65
42691;BME280;28306;55.744;37.578;2023-01-08T11:37:50;101285.00;;;14.20;25.74
42691;BME280;28306;55.744;37.578;2023-01-08T11:48:30;101274.22;;;17.33;23.33
42691;BME280;28306;55.744;37.578;2023-01-08T11:51:27;101270.94;;;17.77;22.29
42691;BME280;28306;55.744;37.578;2023-01-08T12:02:54;101253.53;;;19.17;22.13
42691;BME280;28306;55.744;37.578;2023-01-08T12:08:04;101263.13;;;19.71;21.96
42691;BME280;28306;55.744;37.578;2023-01-08T12:32:28;101275.47;;;21.01;20.59
42691;BME280;28306;55.744;37.578;2023-01-08T12:34:59;101276.97;;;21.11;20.53
42691;BME280;28306;55.744;37.578;2023-01-08T12:37:33;101274.09;;;21.19;20.38
42691;BME280;28306;55.744;37.578;2023-01-08T12:40:13;101278.09;;;21.23;20.41
42691;BME280;28306;55.744;37.578;2023-01-08T12:42:42;101281.28;;;21.33;20.45
42691;BME280;28306;55.744;37.578;2023-01-08T12:45:16;101278.19;;;21.43;20.28
42691;BME280;28306;55.744;37.578;2023-01-08T12:47:47;101280.13;;;21.49;20.20
42691;BME280;28306;55.744;37.578;2023-01-08T12:52:57;101283.72;;;21.63;20.07
42691;BME280;28306;55.744;37.578;2023-01-08T12:55:51;101285.41;;;21.71;20.07
42691;BME280;28306;55.744;37.578;2023-01-08T12:58:30;101256.56;;;21.56;19.98
42691;BME280;28306;55.744;37.578;2023-01-08T13:03:35;101280.41;;;21.81;19.83
42691;BME280;28306;55.744;37.578;2023-01-08T13:06:09;101274.56;;;21.77;19.92
42691;BME280;28306;55.744;37.578;2023-01-08T13:08:36;101265.59;;;21.77;19.80
42691;BME280;28306;55.744;37.578;2023-01-08T13:11:03;101282.09;;;21.89;19.83
42691;BME280;28306;55.744;37.578;2023-01-08T13:18:54;101271.66;;;21.92;19.71
42691;BME280;28306;55.744;37.578;2023-01-08T13:21:38;101266.91;;;21.94;18.77
42691;BME280;28306;55.744;37.578;2023-01-08T13:24:33;101276.06;;;22.00;18.74
42691;BME280;28306;55.744;37.578;2023-01-08T13:27:28;101276.72;;;22.02;19.08
42691;BME280;28306;55.744;37.578;2023-01-08T13:29:54;101279.00;;;22.05;18.83
42691;BME280;28306;55.744;37.578;2023-01-08T13:35:18;101281.28;;;22.08;19.09
42691;BME280;28306;55.744;37.578;2023-01-08T13:37:48;101288.78;;;22.13;19.08
42691;BME280;28306;55.744;37.578;2023-01-08T13:43:09;101296.72;;;22.14;19.44
42691;BME280;28306;55.744;37.578;2023-01-08T13:45:40;101292.56;;;22.12;19.74
42691;BME280;28306;55.744;37.578;2023-01-08T13:48:24;101302.38;;;22.20;19.85
42691;BME280;28306;55.744;37.578;2023-01-08T13:50:51;101301.75;;;22.24;19.90
42691;BME280;28306;55.744;37.578;2023-01-08T13:53:18;101304.69;;;22.23;19.92
42691;BME280;28306;55.744;37.578;2023-01-08T13:56:13;101316.53;;;22.28;19.71
42691;BME280;28306;55.744;37.578;2023-01-08T13:59:00;101317.22;;;22.30;19.77
42691;BME280;28306;55.744;37.578;2023-01-08T14:01:26;101306.97;;;22.26;20.01
42691;BME280;28306;55.744;37.578;2023-01-08T14:03:51;101314.50;;;22.37;19.98
42691;BME280;28306;55.744;37.578;2023-01-08T14:06:25;101319.94;;;22.37;20.04
42691;BME280;28306;55.744;37.578;2023-01-08T14:08:53;101320.16;;;22.36;20.05
42691;BME280;28306;55.744;37.578;2023-01-08T14:11:44;101323.69;;;22.36;20.06
42691;BME280;28306;55.744;37.578;2023-01-08T14:14:17;101326.81;;;22.40;19.94
42691;BME280;28306;55.744;37.578;2023-01-08T14:16:46;101311.34;;;22.27;20.00
42691;BME280;28306;55.744;37.578;2023-01-08T14:19:22;101321.38;;;22.40;19.94
42691;BME280;28306;55.744;37.578;2023-01-08T14:21:55;101321.16;;;22.41;20.11
42691;BME280;28306;55.744;37.578;2023-01-08T14:24:23;101303.06;;;22.35;19.92
42691;BME280;28306;55.744;37.578;2023-01-08T14:26:55;101322.25;;;22.34;19.90